Time;durP1;ratioP1;P1;durP2;ratioP2;P2;SDS_P1;SDS_P2;PMS_P1;PMS_P2;Temp;Humidity;BMP_temperature;BMP_pressure;BME280_temperature;BME280_humidity;BME280_pressure;Samples;Min_cycle;Max_cycle;Signal;HPM_P1;HPM_P2
2021/01/22 00:01:43;;;;;;;8.48;4.10;;;10.70;1.00;;;;;;5041027;28;20034;-82
2021/01/22 00:04:09;;;;;;;7.93;4.10;;;10.70;1.00;;;;;;5033638;28;20032;-82
2021/01/22 00:06:34;;;;;;;8.80;4.25;;;10.70;1.00;;;;;;5033269;28;20518;-82
2021/01/22 00:09:00;;;;;;;6.75;3.97;;;10.70;1.00;;;;;;5033861;28;20394;-82
2021/01/22 00:11:26;;;;;;;8.30;4.03;;;10.70;1.00;;;;;;5032885;28;20546;-83
2021/01/22 00:13:51;;;;;;;9.00;3.90;;;10.70;1.00;;;;;;5033918;28;20065;-83
2021/01/22 00:16:17;;;;;;;5.80;3.63;;;10.70;1.00;;;;;;5033893;28;20120;-83
2021/01/22 00:18:42;;;;;;;8.05;4.45;;;10.70;1.00;;;;;;5033588;28;20033;-83
2021/01/22 00:21:08;;;;;;;6.72;3.80;;;10.70;1.00;;;;;;5032696;28;20033;-83
2021/01/22 00:23:37;;;;;;;5.85;3.67;;;10.80;1.00;;;;;;5033434;28;20090;-83
2021/01/22 00:26:06;;;;;;;7.47;3.75;;;10.80;1.00;;;;;;5033857;28;20057;-83
2021/01/22 00:28:33;;;;;;;8.30;4.57;;;10.90;1.00;;;;;;5033285;28;20566;-83
2021/01/22 00:30:59;;;;;;;9.15;3.90;;;10.80;1.00;;;;;;5033719;28;20151;-83
2021/01/22 00:33:24;;;;;;;6.68;4.20;;;10.70;1.00;;;;;;5032010;28;20116;-83
2021/01/22 00:35:50;;;;;;;10.63;4.35;;;10.80;1.00;;;;;;5033539;28;20025;-83
2021/01/22 00:38:16;;;;;;;7.38;4.28;;;10.80;1.00;;;;;;5033323;28;20039;-83
2021/01/22 00:40:42;;;;;;;8.70;4.00;;;10.80;1.00;;;;;;5033403;28;20483;-83
2021/01/22 00:43:07;;;;;;;6.93;4.13;;;10.80;1.00;;;;;;5032097;28;20076;-83
2021/01/22 00:45:33;;;;;;;7.85;3.90;;;10.80;1.00;;;;;;5033142;28;20156;-83
2021/01/22 00:47:59;;;;;;;9.70;3.83;;;10.80;1.00;;;;;;5033421;28;20037;-83
2021/01/22 00:50:24;;;;;;;8.68;4.40;;;10.90;1.00;;;;;;5033344;28;20025;-83
2021/01/22 00:52:51;;;;;;;10.13;4.93;;;10.70;1.00;;;;;;5031625;28;20026;-83
2021/01/22 00:55:18;;;;;;;12.85;4.93;;;10.40;1.00;;;;;;5033300;28;20061;-83
2021/01/22 00:57:43;;;;;;;11.27;4.68;;;10.40;1.00;;;;;;5033110;28;20037;-83
2021/01/22 01:00:10;;;;;;;12.85;5.38;;;10.40;1.00;;;;;;5036421;28;20051;-83
2021/01/22 01:02:36;;;;;;;12.88;4.65;;;10.40;1.00;;;;;;5052974;28;20487;-83
2021/01/22 01:05:03;;;;;;;7.28;4.40;;;10.60;1.00;;;;;;5052730;28;20104;-83
2021/01/22 01:07:29;;;;;;;15.48;4.43;;;10.60;1.00;;;;;;5052640;28;20116;-83
2021/01/22 01:09:55;;;;;;;6.00;4.07;;;10.60;1.00;;;;;;5053030;28;20028;-83
2021/01/22 01:12:20;;;;;;;9.15;4.28;;;10.70;1.00;;;;;;5043940;28;20403;-83
2021/01/22 01:14:46;;;;;;;6.22;3.92;;;10.70;1.00;;;;;;5032799;28;20030;-83
2021/01/22 01:17:11;;;;;;;9.45;4.45;;;10.70;1.00;;;;;;5033035;28;20043;-83
2021/01/22 01:19:37;;;;;;;8.82;3.45;;;10.70;1.00;;;;;;5032799;28;20032;-83
2021/01/22 01:22:03;;;;;;;6.57;3.10;;;10.70;1.00;;;;;;5032687;28;20083;-82
2021/01/22 01:24:28;;;;;;;6.75;3.05;;;10.70;1.00;;;;;;5032948;28;20026;-82
2021/01/22 01:26:54;;;;;;;6.85;3.30;;;10.70;1.00;;;;;;5038276;28;20025;-82
2021/01/22 01:29:19;;;;;;;7.28;3.50;;;10.70;1.00;;;;;;5052706;28;20021;-82
2021/01/22 01:31:45;;;;;;;7.25;3.53;;;10.80;1.00;;;;;;5052494;28;20530;-82
2021/01/22 01:34:11;;;;;;;5.03;3.13;;;10.70;1.00;;;;;;5052697;28;20474;-83
2021/01/22 01:36:36;;;;;;;10.32;3.60;;;10.70;1.00;;;;;;5052337;28;20064;-83
2021/01/22 01:39:02;;;;;;;7.05;3.53;;;10.70;1.00;;;;;;5051760;28;20394;-82
2021/01/22 01:41:28;;;;;;;5.97;2.95;;;10.70;1.00;;;;;;5051331;28;20028;-82
2021/01/22 01:43:53;;;;;;;7.13;3.35;;;10.70;1.00;;;;;;5052216;28;20033;-82
2021/01/22 01:46:20;;;;;;;9.13;3.50;;;10.70;1.00;;;;;;5052399;28;20039;-82
2021/01/22 01:48:46;;;;;;;8.57;3.20;;;10.70;1.00;;;;;;5051688;28;20021;-82
2021/01/22 01:51:11;;;;;;;9.63;3.80;;;10.70;1.00;;;;;;5051976;28;20032;-82
2021/01/22 01:53:38;;;;;;;6.80;3.88;;;10.70;1.00;;;;;;5052285;28;20400;-82
2021/01/22 01:56:04;;;;;;;8.38;3.72;;;10.70;1.00;;;;;;5052352;28;20057;-82
2021/01/22 01:58:30;;;;;;;6.88;3.28;;;10.70;1.00;;;;;;5052028;28;20068;-82
2021/01/22 02:00:56;;;;;;;6.95;3.58;;;10.70;1.00;;;;;;5045837;28;20490;-82
2021/01/22 02:03:22;;;;;;;8.73;4.47;;;10.60;1.00;;;;;;5045475;28;20394;-82
2021/01/22 02:05:48;;;;;;;6.57;3.53;;;10.60;1.00;;;;;;5051757;28;20028;-82
2021/01/22 02:08:15;;;;;;;8.63;3.67;;;10.60;1.00;;;;;;5042325;28;20013;-82
2021/01/22 02:10:41;;;;;;;10.55;3.67;;;10.60;1.00;;;;;;5032155;28;20104;-82
2021/01/22 02:13:08;;;;;;;6.28;3.90;;;10.50;1.00;;;;;;5032248;28;20017;-82
2021/01/22 02:15:34;;;;;;;7.45;4.10;;;10.60;1.00;;;;;;5032274;28;20053;-82
2021/01/22 02:18:00;;;;;;;6.03;3.67;;;10.60;1.00;;;;;;5032181;28;20025;-82
2021/01/22 02:20:51;;;;;;;9.90;3.90;;;10.60;1.00;;;;;;5031956;28;20041;-82
2021/01/22 02:23:20;;;;;;;10.70;4.50;;;10.60;1.00;;;;;;5031493;28;20092;-82
2021/01/22 02:25:47;;;;;;;13.50;4.07;;;10.60;1.00;;;;;;5032024;28;20052;-82
2021/01/22 02:28:14;;;;;;;9.32;4.07;;;10.60;1.00;;;;;;5032228;28;20025;-82
2021/01/22 02:30:43;;;;;;;10.60;3.90;;;10.60;1.00;;;;;;5032023;28;20029;-82
2021/01/22 02:33:11;;;;;;;8.40;3.88;;;10.60;1.00;;;;;;5031740;28;20025;-82
2021/01/22 02:35:38;;;;;;;9.43;3.85;;;10.60;1.00;;;;;;5037265;28;20515;-82
2021/01/22 02:38:06;;;;;;;6.10;3.50;;;10.60;1.00;;;;;;5052069;28;20029;-82
2021/01/22 02:40:34;;;;;;;7.05;3.78;;;10.60;1.00;;;;;;5051862;28;20108;-82
2021/01/22 02:43:03;;;;;;;8.27;4.05;;;10.60;1.00;;;;;;5051680;28;20114;-82
2021/01/22 02:45:29;;;;;;;10.98;4.28;;;10.60;1.00;;;;;;5051882;28;20029;-82
2021/01/22 02:47:56;;;;;;;6.00;3.60;;;10.60;1.00;;;;;;5051500;28;20112;-82
2021/01/22 02:50:33;;;;;;;10.57;3.97;;;10.60;1.00;;;;;;5051736;28;20023;-82
2021/01/22 02:53:03;;;;;;;8.15;3.90;;;10.60;1.00;;;;;;5050232;28;20080;-82
2021/01/22 02:55:29;;;;;;;9.15;3.88;;;10.60;1.00;;;;;;5035430;28;20038;-82
2021/01/22 02:58:28;;;;;;;9.63;3.90;;;10.60;1.00;;;;;;5035333;28;20105;-82
2021/01/22 03:01:02;;;;;;;7.35;3.80;;;10.60;1.00;;;;;;5035368;28;20443;-82
2021/01/22 03:03:51;;;;;;;6.95;3.83;;;10.60;1.00;;;;;;5035129;28;20032;-82
2021/01/22 03:06:23;;;;;;;7.80;4.10;;;10.60;1.00;;;;;;5035336;28;20029;-82
2021/01/22 03:08:53;;;;;;;6.85;4.18;;;10.60;1.00;;;;;;5034556;28;20061;-82
2021/01/22 03:11:20;;;;;;;8.25;3.80;;;10.60;1.00;;;;;;5035244;28;20033;-82
2021/01/22 03:13:48;;;;;;;7.40;4.25;;;10.60;1.00;;;;;;5035044;28;20100;-82
2021/01/22 03:16:14;;;;;;;6.60;3.78;;;10.60;1.00;;;;;;5035251;28;20487;-83
2021/01/22 03:19:03;;;;;;;10.07;4.45;;;10.50;1.00;;;;;;5034887;28;20056;-82
2021/01/22 03:21:28;;;;;;;9.20;4.07;;;10.60;1.00;;;;;;5035120;28;20494;-82
2021/01/22 03:23:54;;;;;;;11.35;4.03;;;10.60;1.00;;;;;;5046571;28;20104;-82
2021/01/22 03:26:20;;;;;;;8.57;3.85;;;10.60;1.00;;;;;;5054754;28;20119;-82
2021/01/22 03:28:46;;;;;;;9.10;3.60;;;10.60;1.00;;;;;;5054707;28;20104;-82
2021/01/22 03:31:12;;;;;;;8.30;3.78;;;10.60;1.00;;;;;;5051052;28;20041;-82
2021/01/22 03:33:38;;;;;;;9.30;3.90;;;10.50;1.00;;;;;;5034928;28;20025;-82
2021/01/22 03:36:05;;;;;;;7.95;3.67;;;10.40;1.00;;;;;;5034833;28;20100;-82
2021/01/22 03:38:31;;;;;;;13.00;4.00;;;10.40;1.00;;;;;;5034587;28;20483;-82
2021/01/22 03:40:57;;;;;;;6.03;3.35;;;10.30;1.00;;;;;;5034741;28;20040;-82
2021/01/22 03:43:22;;;;;;;12.35;3.90;;;10.30;1.00;;;;;;5034888;28;20101;-82
2021/01/22 03:45:48;;;;;;;11.63;4.25;;;10.20;1.00;;;;;;5032872;28;20512;-82
2021/01/22 03:48:14;;;;;;;13.15;4.80;;;10.20;1.00;;;;;;5034739;28;20021;-82
2021/01/22 03:50:39;;;;;;;11.27;3.95;;;10.20;1.00;;;;;;5034482;28;20022;-82
2021/01/22 03:53:05;;;;;;;8.85;4.00;;;10.10;1.00;;;;;;5034429;28;20096;-82
2021/01/22 03:55:31;;;;;;;9.02;3.90;;;10.00;1.00;;;;;;5034470;28;20025;-82
2021/01/22 03:57:56;;;;;;;8.23;3.78;;;10.00;1.00;;;;;;5034351;28;20029;-82
2021/01/22 04:00:22;;;;;;;9.38;4.05;;;9.90;1.00;;;;;;5033868;28;20049;-82
2021/01/22 04:02:47;;;;;;;8.82;3.88;;;9.90;1.00;;;;;;5053422;28;20166;-82
2021/01/22 04:05:13;;;;;;;8.70;3.60;;;9.90;1.00;;;;;;5035575;28;20033;-83
2021/01/22 04:07:39;;;;;;;7.13;3.53;;;9.80;1.00;;;;;;5034214;28;20033;-83
2021/01/22 04:10:06;;;;;;;7.97;3.67;;;9.80;1.00;;;;;;5034193;28;20022;-83
2021/01/22 04:12:33;;;;;;;10.10;4.35;;;9.80;1.00;;;;;;5034001;28;20022;-83
2021/01/22 04:14:59;;;;;;;11.50;3.72;;;9.80;1.00;;;;;;5032433;28;20071;-82
2021/01/22 04:17:25;;;;;;;7.43;3.45;;;9.80;1.00;;;;;;5034250;28;20037;-82
2021/01/22 04:19:50;;;;;;;8.15;3.85;;;9.80;1.00;;;;;;5050169;28;20056;-82
2021/01/22 04:22:16;;;;;;;9.77;4.00;;;9.90;1.00;;;;;;5053731;28;20100;-82
2021/01/22 04:24:41;;;;;;;8.70;3.83;;;9.90;1.00;;;;;;5053795;28;20028;-82
2021/01/22 04:27:07;;;;;;;7.60;3.40;;;10.00;1.00;;;;;;5053785;28;20554;-82
2021/01/22 04:29:32;;;;;;;9.57;3.47;;;10.00;1.00;;;;;;5053496;28;20100;-82
2021/01/22 04:31:58;;;;;;;11.43;3.53;;;10.00;1.00;;;;;;5053639;28;20033;-82
2021/01/22 04:34:24;;;;;;;11.52;3.90;;;10.00;1.00;;;;;;5051268;28;20051;-82
2021/01/22 04:36:49;;;;;;;7.68;3.75;;;9.90;1.00;;;;;;5053715;28;20398;-82
2021/01/22 04:39:15;;;;;;;6.78;3.58;;;9.90;1.00;;;;;;5052307;28;20021;-82
2021/01/22 04:41:40;;;;;;;8.80;3.78;;;9.90;1.00;;;;;;5052311;28;20025;-82
2021/01/22 04:44:06;;;;;;;10.18;3.70;;;9.90;1.00;;;;;;5048060;28;20478;-82
2021/01/22 04:46:36;;;;;;;9.70;3.63;;;9.90;1.00;;;;;;5053362;28;20394;-82
2021/01/22 04:49:03;;;;;;;9.90;4.13;;;9.90;1.00;;;;;;5053162;28;20028;-82
2021/01/22 04:51:30;;;;;;;7.05;3.33;;;9.80;1.00;;;;;;5053388;28;20509;-82
2021/01/22 04:54:02;;;;;;;10.25;3.92;;;9.70;1.00;;;;;;5053297;28;20047;-82
2021/01/22 04:56:31;;;;;;;12.00;4.85;;;9.70;1.00;;;;;;5053181;28;20033;-82
2021/01/22 04:59:00;;;;;;;10.50;4.32;;;9.70;1.00;;;;;;5041476;28;20057;-82
2021/01/22 05:01:26;;;;;;;9.80;3.72;;;9.70;1.00;;;;;;5033108;28;20029;-82
2021/01/22 05:03:52;;;;;;;8.77;3.45;;;9.60;1.00;;;;;;5033049;28;20030;-82
2021/01/22 05:06:18;;;;;;;6.82;4.07;;;9.70;1.00;;;;;;5033038;28;20034;-82
2021/01/22 05:08:43;;;;;;;8.82;3.53;;;9.60;1.00;;;;;;5033277;28;20021;-82
2021/01/22 05:11:09;;;;;;;7.80;3.65;;;9.70;1.00;;;;;;5032937;28;20025;-82
2021/01/22 05:13:36;;;;;;;11.68;3.38;;;9.70;1.00;;;;;;5042118;28;20027;-82
2021/01/22 05:16:15;;;;;;;7.00;3.40;;;9.70;1.00;;;;;;5052917;28;20104;-82
2021/01/22 05:18:41;;;;;;;8.98;3.55;;;9.60;1.00;;;;;;5053010;28;20031;-82
2021/01/22 05:21:12;;;;;;;11.90;3.50;;;9.70;1.00;;;;;;5052762;28;20028;-82
2021/01/22 05:23:39;;;;;;;8.35;3.55;;;9.70;1.00;;;;;;5052753;28;20070;-82
2021/01/22 05:26:07;;;;;;;9.98;3.83;;;9.70;1.00;;;;;;5052718;28;20575;-82
2021/01/22 05:28:38;;;;;;;8.98;3.60;;;9.60;1.00;;;;;;5039888;28;20056;-82
2021/01/22 05:31:08;;;;;;;11.43;4.45;;;9.60;1.00;;;;;;5032691;28;20037;-82
2021/01/22 05:33:34;;;;;;;7.72;3.63;;;9.60;1.00;;;;;;5032758;28;20032;-82
2021/01/22 05:36:26;;;;;;;8.63;3.80;;;9.60;1.00;;;;;;5032544;28;20356;-82
2021/01/22 05:38:53;;;;;;;6.95;3.50;;;9.60;1.00;;;;;;5031468;28;20017;-82
2021/01/22 05:41:18;;;;;;;8.70;3.58;;;9.60;1.00;;;;;;5032505;28;20029;-83
2021/01/22 05:43:44;;;;;;;12.20;3.88;;;9.60;1.00;;;;;;5032368;28;20033;-82
2021/01/22 05:46:24;;;;;;;6.93;3.53;;;9.70;1.00;;;;;;5032528;28;20029;-82
2021/01/22 05:49:12;;;;;;;7.45;3.63;;;9.70;1.00;;;;;;5032475;28;20024;-82
2021/01/22 05:51:37;;;;;;;8.15;3.65;;;9.70;1.00;;;;;;5031264;28;20091;-82
2021/01/22 05:54:03;;;;;;;8.27;3.25;;;9.70;1.00;;;;;;5032371;28;20479;-82
2021/01/22 05:56:29;;;;;;;11.43;3.53;;;9.80;1.00;;;;;;5032066;28;20033;-83
2021/01/22 05:58:54;;;;;;;9.63;3.50;;;9.70;1.00;;;;;;5035713;28;20077;-83
2021/01/22 06:01:22;;;;;;;8.48;3.42;;;9.80;1.00;;;;;;5032130;28;20030;-83
2021/01/22 06:03:48;;;;;;;8.32;3.42;;;9.80;1.00;;;;;;5032315;28;20454;-83
2021/01/22 06:06:15;;;;;;;7.32;3.60;;;9.80;1.00;;;;;;5032162;28;20582;-82
2021/01/22 06:08:55;;;;;;;8.75;3.17;;;9.80;1.00;;;;;;5032350;28;20053;-82
2021/01/22 06:11:25;;;;;;;7.82;3.33;;;9.80;1.00;;;;;;5031625;28;20050;-83
2021/01/22 06:13:59;;;;;;;7.55;3.40;;;9.80;1.00;;;;;;5032374;28;20021;-83
2021/01/22 06:16:28;;;;;;;9.25;3.78;;;9.90;1.00;;;;;;5032215;28;20025;-83
2021/01/22 06:19:00;;;;;;;7.45;3.38;;;9.80;1.00;;;;;;5032099;28;20028;-82
2021/01/22 06:21:25;;;;;;;10.00;3.05;;;9.80;1.00;;;;;;5032033;28;20029;-82
2021/01/22 06:23:52;;;;;;;6.47;3.70;;;9.90;1.00;;;;;;5032021;28;20029;-82
2021/01/22 06:26:22;;;;;;;9.18;3.63;;;9.90;1.00;;;;;;5035600;28;20032;-82
2021/01/22 06:28:51;;;;;;;7.72;3.20;;;9.90;1.00;;;;;;5056250;28;20017;-82
2021/01/22 06:31:18;;;;;;;7.60;3.53;;;9.90;1.00;;;;;;5055805;28;20104;-82
2021/01/22 06:33:48;;;;;;;11.23;4.75;;;9.90;1.00;;;;;;5055910;28;20025;-82
2021/01/22 06:36:15;;;;;;;9.20;3.60;;;9.90;1.00;;;;;;5055881;28;20502;-82
2021/01/22 06:38:41;;;;;;;8.98;3.70;;;9.90;1.00;;;;;;5055772;28;20052;-83
2021/01/22 06:41:10;;;;;;;9.50;3.35;;;9.90;1.00;;;;;;5052438;28;20033;-83
2021/01/22 06:43:37;;;;;;;8.57;3.92;;;9.90;1.00;;;;;;5035289;28;20026;-83
2021/01/22 06:46:12;;;;;;;7.90;3.15;;;10.00;1.00;;;;;;5035687;28;20034;-82
2021/01/22 06:49:06;;;;;;;9.60;3.38;;;10.00;1.00;;;;;;5035575;28;20105;-82
2021/01/22 06:51:34;;;;;;;11.00;4.15;;;10.00;1.00;;;;;;5031045;28;20041;-82
2021/01/22 06:54:03;;;;;;;8.57;3.30;;;10.00;1.00;;;;;;5035261;28;20021;-83
2021/01/22 06:56:29;;;;;;;11.45;3.70;;;10.00;1.00;;;;;;5035168;28;20070;-83
2021/01/22 06:58:55;;;;;;;10.80;5.00;;;10.00;1.00;;;;;;5054346;28;20052;-83
2021/01/22 07:01:34;;;;;;;9.15;3.97;;;10.00;1.00;;;;;;5045422;28;20033;-83
2021/01/22 07:04:00;;;;;;;10.00;3.75;;;10.00;1.00;;;;;;5035485;28;20037;-83
2021/01/22 07:06:31;;;;;;;9.00;3.58;;;10.10;1.00;;;;;;5034765;28;20038;-83
2021/01/22 07:08:59;;;;;;;6.80;3.20;;;10.10;1.00;;;;;;5034944;28;20028;-83
2021/01/22 07:11:25;;;;;;;7.68;3.47;;;10.00;1.00;;;;;;5039111;28;20502;-82
2021/01/22 07:13:52;;;;;;;11.27;3.50;;;10.00;1.00;;;;;;5054799;28;20021;-82
2021/01/22 07:16:18;;;;;;;10.65;3.83;;;10.00;1.00;;;;;;5054969;28;20036;-82
2021/01/22 07:18:44;;;;;;;9.77;3.72;;;10.00;1.00;;;;;;5055267;28;20393;-82
2021/01/22 07:21:44;;;;;;;8.05;3.42;;;10.00;1.00;;;;;;5054960;28;20029;-82
2021/01/22 07:24:16;;;;;;;11.70;3.50;;;10.00;1.00;;;;;;5046871;28;20037;-82
2021/01/22 07:26:47;;;;;;;9.52;3.90;;;10.00;1.00;;;;;;5044972;28;20025;-83
2021/01/22 07:29:24;;;;;;;8.15;3.50;;;10.00;1.00;;;;;;5034925;28;20026;-83
2021/01/22 07:32:04;;;;;;;10.63;3.35;;;10.00;1.00;;;;;;5034649;28;20092;-83
2021/01/22 07:34:38;;;;;;;9.45;3.33;;;10.00;1.00;;;;;;5034775;28;20036;-83
2021/01/22 07:37:05;;;;;;;8.98;3.35;;;10.10;1.00;;;;;;5033547;28;20087;-83
2021/01/22 07:39:31;;;;;;;10.40;3.70;;;10.10;1.00;;;;;;5034332;28;20030;-83
2021/01/22 07:42:17;;;;;;;9.15;3.10;;;10.10;1.00;;;;;;5034422;28;20045;-83
2021/01/22 07:44:46;;;;;;;12.45;3.88;;;10.10;1.00;;;;;;5034786;28;20035;-83
2021/01/22 07:47:33;;;;;;;9.70;4.32;;;10.20;1.00;;;;;;5034618;28;20018;-83
2021/01/22 07:50:00;;;;;;;6.88;3.63;;;10.20;1.00;;;;;;5034390;28;20055;-83
2021/01/22 07:52:26;;;;;;;9.10;3.92;;;10.20;1.00;;;;;;5034079;28;20113;-83
2021/01/22 07:54:52;;;;;;;10.50;4.05;;;10.20;1.00;;;;;;5034603;28;20026;-83
2021/01/22 07:57:25;;;;;;;9.27;3.60;;;10.20;1.00;;;;;;5033961;28;20024;-83
2021/01/22 07:59:53;;;;;;;8.75;3.95;;;10.30;1.00;;;;;;5034186;28;20045;-82
2021/01/22 08:02:22;;;;;;;11.32;3.97;;;10.30;1.00;;;;;;5034182;28;20029;-82
2021/01/22 08:05:02;;;;;;;9.05;3.70;;;10.30;1.00;;;;;;5034211;28;20026;-82
2021/01/22 08:07:41;;;;;;;9.15;3.30;;;10.30;1.00;;;;;;5034082;28;20053;-82
2021/01/22 08:10:06;;;;;;;7.85;3.35;;;10.30;1.00;;;;;;5036587;28;20054;-82
2021/01/22 08:12:32;;;;;;;8.27;3.53;;;10.40;1.00;;;;;;5053960;28;20053;-82
2021/01/22 08:14:58;;;;;;;10.05;3.90;;;10.40;1.00;;;;;;5054117;28;20032;-82
2021/01/22 08:17:25;;;;;;;8.85;3.72;;;10.40;1.00;;;;;;5053930;28;20028;-82
2021/01/22 08:19:51;;;;;;;7.75;3.08;;;10.40;1.00;;;;;;5054015;28;20669;-82
2021/01/22 08:22:17;;;;;;;9.07;3.38;;;10.40;1.00;;;;;;5053519;28;20029;-82
2021/01/22 08:24:47;;;;;;;10.05;3.63;;;10.40;1.00;;;;;;5052350;28;20013;-82
2021/01/22 08:27:13;;;;;;;6.57;3.58;;;10.40;1.00;;;;;;5035609;28;20025;-82
2021/01/22 08:29:39;;;;;;;9.00;3.72;;;10.50;1.00;;;;;;5033772;28;20024;-82
2021/01/22 08:32:08;;;;;;;9.25;3.70;;;10.50;1.00;;;;;;5033840;28;20109;-82
2021/01/22 08:34:34;;;;;;;9.43;3.45;;;10.60;1.00;;;;;;5033647;28;20021;-82
2021/01/22 08:37:00;;;;;;;7.40;3.30;;;10.60;1.00;;;;;;5033432;28;20025;-82
2021/01/22 08:39:26;;;;;;;12.32;3.80;;;10.60;1.00;;;;;;5033349;28;20036;-83
2021/01/22 08:41:51;;;;;;;10.57;3.50;;;10.60;1.00;;;;;;5033624;28;20525;-82
2021/01/22 08:44:17;;;;;;;8.93;3.90;;;10.70;1.00;;;;;;5033433;28;20029;-82
2021/01/22 08:46:50;;;;;;;9.82;3.53;;;10.70;1.00;;;;;;5033480;28;20387;-82
2021/01/22 08:49:17;;;;;;;12.00;4.20;;;10.80;1.00;;;;;;5032937;28;20090;-82
2021/01/22 08:51:43;;;;;;;9.50;3.15;;;10.80;1.00;;;;;;5033037;28;20483;-82
2021/01/22 08:54:09;;;;;;;10.60;3.70;;;10.90;1.00;;;;;;5045300;28;20546;-81
2021/01/22 08:56:35;;;;;;;6.28;2.80;;;11.10;1.00;;;;;;5034664;28;20152;-82
2021/01/22 08:59:06;;;;;;;7.93;3.13;;;11.50;1.00;;;;;;5033114;28;20124;-82
2021/01/22 09:01:57;;;;;;;8.38;3.60;;;14.00;99.90;;;;;;5033868;28;20036;-82
2021/01/22 09:04:25;;;;;;;8.38;3.33;;;15.70;99.90;;;;;;5033668;28;20037;-80
2021/01/22 09:06:53;;;;;;;7.90;3.53;;;16.40;99.90;;;;;;5033135;28;20029;-80
2021/01/22 09:09:43;;;;;;;8.15;3.20;;;18.80;99.90;;;;;;5032785;28;20490;-81
2021/01/22 09:12:13;;;;;;;10.27;3.03;;;19.90;99.90;;;;;;5030237;28;20041;-84
2021/01/22 09:14:57;;;;;;;6.35;3.20;;;21.50;99.90;;;;;;5023281;28;20029;-82
2021/01/22 09:17:24;;;;;;;8.75;3.88;;;24.80;99.90;;;;;;5013779;28;20030;-82
2021/01/22 09:20:01;;;;;;;8.32;3.38;;;24.80;99.90;;;;;;5013867;28;20136;-82
2021/01/22 09:22:30;;;;;;;7.45;3.25;;;25.70;99.90;;;;;;5012400;28;20037;-82
2021/01/22 09:24:56;;;;;;;8.25;3.22;;;25.50;99.90;;;;;;5045632;28;20523;-82
2021/01/22 09:27:21;;;;;;;6.18;3.30;;;24.20;99.90;;;;;;5033559;28;20109;-82
2021/01/22 09:29:47;;;;;;;7.30;3.45;;;22.20;99.90;;;;;;5033443;28;20093;-82
2021/01/22 09:32:13;;;;;;;9.05;3.67;;;19.70;99.90;;;;;;5033803;28;20045;-82
2021/01/22 09:34:39;;;;;;;9.07;3.47;;;18.60;99.90;;;;;;5048324;28;20419;-82
2021/01/22 09:37:06;;;;;;;12.25;3.85;;;16.80;99.90;;;;;;5052883;28;20537;-82
2021/01/22 09:39:32;;;;;;;9.13;3.65;;;14.90;99.90;;;;;;5052604;28;20024;-82
2021/01/22 09:41:58;;;;;;;11.68;4.03;;;13.60;99.90;;;;;;5053447;28;20028;-82
2021/01/22 09:44:23;;;;;;;6.82;2.85;;;13.00;99.90;;;;;;5053108;28;20099;-81
2021/01/22 09:46:49;;;;;;;11.45;5.15;;;12.50;99.90;;;;;;5053195;28;20368;-81
2021/01/22 09:49:15;;;;;;;7.95;4.30;;;12.30;99.90;;;;;;5052083;28;20017;-81
2021/01/22 09:51:40;;;;;;;6.85;2.92;;;12.30;99.90;;;;;;5034390;28;20086;-81
2021/01/22 09:54:06;;;;;;;7.80;2.58;;;12.10;99.90;;;;;;5043440;28;20025;-82
2021/01/22 09:56:32;;;;;;;7.05;2.75;;;12.00;99.90;;;;;;5052805;28;20033;-82
2021/01/22 09:58:57;;;;;;;5.72;2.60;;;11.90;99.90;;;;;;5052740;28;20053;-82
2021/01/22 10:01:23;;;;;;;7.03;2.88;;;11.80;99.90;;;;;;5044538;28;20040;-80
2021/01/22 10:03:49;;;;;;;6.68;2.88;;;11.80;99.90;;;;;;5052670;28;20040;-80
2021/01/22 10:06:14;;;;;;;9.80;2.88;;;11.70;99.90;;;;;;5052810;28;20104;-81
2021/01/22 10:08:40;;;;;;;9.35;2.88;;;11.70;99.90;;;;;;5051610;28;20028;-80
2021/01/22 10:11:06;;;;;;;6.53;2.35;;;11.70;99.90;;;;;;5039915;28;20017;-80
2021/01/22 10:13:31;;;;;;;5.63;2.90;;;11.70;99.90;;;;;;5032599;28;20057;-80
2021/01/22 10:15:57;;;;;;;9.20;2.85;;;11.80;1.00;;;;;;5032528;28;20026;-80
2021/01/22 10:18:23;;;;;;;8.10;3.45;;;11.90;99.90;;;;;;5032365;28;20025;-80
2021/01/22 10:20:50;;;;;;;6.63;2.45;;;12.00;99.90;;;;;;5032789;28;20064;-80
2021/01/22 10:23:15;;;;;;;6.63;2.60;;;12.00;99.90;;;;;;5032866;28;20065;-80
2021/01/22 10:25:41;;;;;;;8.60;2.95;;;12.00;99.90;;;;;;5032544;28;20494;-80
2021/01/22 10:28:07;;;;;;;10.38;3.05;;;12.00;99.90;;;;;;5032681;28;20446;-80
2021/01/22 10:30:32;;;;;;;6.53;2.88;;;12.10;99.90;;;;;;5032903;28;20109;-80
2021/01/22 10:32:58;;;;;;;9.68;3.28;;;12.20;99.90;;;;;;5031162;28;20434;-82
2021/01/22 10:35:26;;;;;;;9.90;3.40;;;12.20;99.90;;;;;;5031318;28;20044;-82
2021/01/22 10:37:52;;;;;;;8.60;3.13;;;12.20;99.90;;;;;;5032642;28;20128;-81
2021/01/22 10:40:17;;;;;;;10.05;3.50;;;12.30;99.90;;;;;;5032486;28;20416;-81
2021/01/22 10:42:43;;;;;;;9.52;2.85;;;12.50;99.90;;;;;;5031297;28;20364;-82
2021/01/22 10:45:09;;;;;;;7.68;2.90;;;13.00;99.90;;;;;;5032864;28;20053;-82
2021/01/22 10:47:35;;;;;;;4.47;2.55;;;14.00;99.90;;;;;;5032084;28;20104;-83
2021/01/22 10:50:04;;;;;;;9.00;3.55;;;15.00;99.90;;;;;;5032303;28;20101;-81
2021/01/22 10:52:30;;;;;;;8.57;4.25;;;15.60;99.90;;;;;;5032661;28;20364;-81
2021/01/22 10:54:55;;;;;;;8.77;3.00;;;15.60;99.90;;;;;;5032271;28;20096;-82
2021/01/22 10:57:21;;;;;;;5.20;3.00;;;16.00;99.90;;;;;;5032568;28;20371;-81
2021/01/22 10:59:47;;;;;;;5.78;4.22;;;16.00;99.90;;;;;;5031875;28;20073;-82
2021/01/22 11:02:12;;;;;;;6.35;3.35;;;18.80;99.90;;;;;;5031619;28;20094;-82
2021/01/22 11:04:41;;;;;;;9.32;3.72;;;20.40;99.90;;;;;;5032350;28;20040;-81
2021/01/22 11:07:07;;;;;;;7.28;3.47;;;22.20;99.90;;;;;;5032538;28;20021;-81
2021/01/22 11:09:33;;;;;;;8.90;3.40;;;21.20;99.90;;;;;;5032062;28;20029;-81
2021/01/22 11:12:02;;;;;;;6.88;3.15;;;19.60;99.90;;;;;;5032488;28;20024;-81
2021/01/22 11:14:28;;;;;;;8.02;3.47;;;18.30;99.90;;;;;;5035840;28;20029;-81
2021/01/22 11:16:53;;;;;;;8.50;2.75;;;17.00;99.90;;;;;;5046665;28;20029;-81
2021/01/22 11:19:19;;;;;;;6.75;3.63;;;16.60;99.90;;;;;;5055631;28;20562;-81
2021/01/22 11:21:44;;;;;;;7.18;3.60;;;16.00;99.90;;;;;;5055469;28;20029;-81
2021/01/22 11:24:10;;;;;;;4.93;2.63;;;15.20;99.90;;;;;;5055542;28;20060;-81
2021/01/22 11:26:35;;;;;;;5.88;2.42;;;14.60;99.90;;;;;;5055336;28;20591;-81
2021/01/22 11:29:01;;;;;;;6.55;3.00;;;14.20;99.90;;;;;;5055100;28;20040;-81
2021/01/22 11:31:28;;;;;;;8.88;3.03;;;13.80;99.90;;;;;;5054114;28;20378;-81
2021/01/22 11:33:54;;;;;;;6.70;3.20;;;13.70;99.90;;;;;;5055291;28;20071;-81
2021/01/22 11:36:20;;;;;;;6.60;2.88;;;13.60;99.90;;;;;;5054521;28;20422;-81
2021/01/22 11:38:45;;;;;;;8.57;2.92;;;13.80;99.90;;;;;;5055028;28;20029;-82
2021/01/22 11:41:11;;;;;;;9.60;5.50;;;13.70;99.90;;;;;;5054917;28;20033;-81
2021/01/22 11:43:36;;;;;;;8.63;3.50;;;13.60;99.90;;;;;;5054889;28;20056;-81
2021/01/22 11:46:02;;;;;;;13.23;7.78;;;13.50;99.90;;;;;;5046562;28;20049;-82
2021/01/22 11:48:28;;;;;;;8.30;3.53;;;13.40;99.90;;;;;;5035111;28;20383;-81
2021/01/22 11:50:53;;;;;;;7.05;2.80;;;13.30;99.90;;;;;;5034901;28;20505;-81
2021/01/22 11:53:19;;;;;;;7.47;3.03;;;13.20;99.90;;;;;;5035468;28;20068;-81
2021/01/22 11:55:44;;;;;;;8.77;2.60;;;13.30;99.90;;;;;;5034857;28;20033;-85
2021/01/22 11:58:10;;;;;;;6.40;2.35;;;13.20;99.90;;;;;;5033152;28;20080;-81
2021/01/22 12:00:36;;;;;;;6.32;2.30;;;13.10;99.90;;;;;;5039633;28;20091;-82
2021/01/22 12:03:03;;;;;;;7.20;2.63;;;13.10;99.90;;;;;;5054818;28;20021;-91
2021/01/22 12:05:29;;;;;;;6.32;2.30;;;13.10;99.90;;;;;;5053038;28;20441;-85
2021/01/22 12:07:54;;;;;;;8.95;2.90;;;13.10;99.90;;;;;;5054591;28;20032;-82
2021/01/22 12:10:20;;;;;;;5.30;2.30;;;13.20;99.90;;;;;;5054621;28;20063;-81
2021/01/22 12:12:47;;;;;;;7.40;2.60;;;13.20;99.90;;;;;;5055180;28;20463;-81
2021/01/22 12:15:13;;;;;;;5.68;2.20;;;13.30;99.90;;;;;;5048604;28;20034;-81
2021/01/22 12:17:39;;;;;;;9.35;3.03;;;13.30;99.90;;;;;;5034901;28;20381;-81
2021/01/22 12:20:05;;;;;;;10.70;5.78;;;13.30;99.90;;;;;;5034629;28;20040;-81
2021/01/22 12:22:31;;;;;;;9.38;5.53;;;13.30;99.90;;;;;;5034411;28;20115;-82
2021/01/22 12:24:57;;;;;;;8.98;3.42;;;13.20;99.90;;;;;;5034089;28;20472;-81
2021/01/22 12:27:22;;;;;;;7.10;3.20;;;13.20;99.90;;;;;;5034349;28;20078;-82
2021/01/22 12:29:48;;;;;;;9.15;2.95;;;13.20;99.90;;;;;;5033694;28;20029;-81
2021/01/22 12:32:14;;;;;;;7.20;2.75;;;13.20;99.90;;;;;;5034712;28;20017;-81
2021/01/22 12:34:40;;;;;;;6.13;3.15;;;13.30;99.90;;;;;;5034518;28;20032;-81
2021/01/22 12:37:05;;;;;;;7.03;3.72;;;13.30;99.90;;;;;;5034301;28;20022;-81
2021/01/22 12:39:31;;;;;;;6.05;3.45;;;13.30;99.90;;;;;;5034468;28;20034;-82
2021/01/22 12:41:57;;;;;;;8.40;4.15;;;13.40;99.90;;;;;;5034099;28;20018;-82
2021/01/22 12:44:22;;;;;;;8.27;3.50;;;13.40;99.90;;;;;;5038660;28;20033;-82
2021/01/22 12:46:48;;;;;;;3.92;2.30;;;13.50;99.90;;;;;;5053751;28;20032;-83
2021/01/22 12:49:14;;;;;;;9.10;3.00;;;13.50;99.90;;;;;;5053965;28;20086;-82
2021/01/22 12:51:39;;;;;;;13.68;4.50;;;13.50;99.90;;;;;;5054015;28;20017;-82
2021/01/22 12:54:05;;;;;;;12.40;4.60;;;13.50;99.90;;;;;;5053709;28;20489;-82
2021/01/22 12:56:32;;;;;;;13.55;5.53;;;13.60;99.90;;;;;;5053868;28;20394;-82